createdAt,value
2022-07-29T05:22:53.693Z,99105.78
2022-07-29T05:25:20.775Z,99109.91
2022-07-29T05:27:47.940Z,99107.50
2022-07-29T05:30:18.300Z,99102.66
2022-07-29T05:32:45.486Z,99103.94
2022-07-29T05:53:32.840Z,99114.59
2022-07-29T05:56:08.402Z,99108.28
2022-07-29T06:01:40.680Z,99105.41
2022-07-29T06:04:08.827Z,99110.25
2022-07-29T06:10:36.489Z,99109.16
2022-07-29T06:50:18.068Z,99130.22
2022-07-29T06:53:58.178Z,99132.97
2022-07-29T06:56:38.953Z,99134.16
2022-07-29T06:59:16.364Z,99126.31
2022-07-29T07:01:44.097Z,99118.09
2022-07-29T07:04:11.492Z,99122.53
2022-07-29T07:06:38.960Z,99122.78
2022-07-29T07:09:06.492Z,99116.97
2022-07-29T07:11:33.629Z,99106.94
2022-07-29T07:14:05.752Z,99105.34
2022-07-29T07:16:34.333Z,99103.84
2022-07-29T07:19:04.669Z,99111.81
2022-07-29T07:36:32.927Z,99099.19
2022-07-29T07:39:03.347Z,99094.19
2022-07-29T07:41:33.878Z,99091.06
2022-07-29T07:44:01.070Z,99102.69
2022-07-29T07:47:28.577Z,99106.06
2022-07-29T07:50:06.918Z,99097.88
2022-07-29T07:52:34.305Z,99096.34
2022-07-29T08:05:49.423Z,99095.06
2022-07-29T08:08:23.916Z,99091.94
2022-07-29T08:10:53.686Z,99083.09
2022-07-29T08:13:22.044Z,99084.13
2022-07-29T08:16:13.322Z,99082.00
2022-07-29T08:18:46.431Z,99074.75
2022-07-29T08:21:46.644Z,99082.00
2022-07-29T08:24:42.539Z,99080.91
2022-07-29T08:27:42.961Z,99082.00
2022-07-29T08:30:24.649Z,99078.81
2022-07-29T08:33:19.298Z,99084.03
2022-07-29T08:35:49.983Z,99071.25
2022-07-29T08:38:20.898Z,99078.28
2022-07-29T08:40:50.615Z,99079.19
2022-07-29T08:47:39.739Z,99070.50
2022-07-29T09:24:42.767Z,99062.97
2022-07-29T09:33:56.167Z,99052.81
2022-07-29T09:40:07.925Z,99046.72
2022-07-29T09:42:47.969Z,99048.34
2022-07-29T09:45:30.933Z,99041.84
2022-07-29T09:48:01.566Z,99038.19
2022-07-29T09:50:40.968Z,99045.63
2022-07-29T09:53:11.277Z,99044.31
2022-07-29T09:56:04.160Z,99044.47
2022-07-29T09:58:38.360Z,99043.53
2022-07-29T10:01:16.495Z,99042.72
2022-07-29T10:06:01.833Z,99032.63
2022-07-29T10:12:51.600Z,99029.25
2022-07-29T10:16:11.313Z,99026.00
2022-07-29T10:22:52.910Z,99010.47
2022-07-29T10:33:35.174Z,99011.41
2022-07-29T10:58:36.007Z,98994.38
2022-07-29T11:02:41.669Z,98995.09
2022-07-29T11:04:55.899Z,98995.09
2022-07-29T11:08:43.068Z,98991.72
2022-07-29T11:12:01.228Z,98993.44
2022-07-29T11:24:28.838Z,98982.38
2022-07-29T11:27:19.867Z,98981.81
2022-07-29T11:34:07.145Z,98970.88
2022-07-29T11:36:32.771Z,98968.53
2022-07-29T11:39:36.469Z,98972.28
2022-07-29T11:42:34.519Z,98974.41
2022-07-29T11:49:09.199Z,98972.47
2022-07-29T11:51:46.447Z,98966.88
2022-07-29T11:55:00.836Z,98960.69
2022-07-29T12:00:41.984Z,98953.59
2022-07-29T12:03:14.004Z,98954.16
2022-07-29T12:06:07.445Z,98960.44
2022-07-29T12:08:42.291Z,98957.25
2022-07-29T16:00:38.949Z,98844.22
2022-07-29T17:23:53.492Z,98871.09
2022-07-29T17:26:20.902Z,98856.16
2022-07-29T17:28:49.165Z,98857.13
2022-07-29T17:31:18.921Z,98855.03
2022-07-29T17:33:46.391Z,98861.53
2022-07-29T17:36:43.171Z,98863.50
2022-07-29T17:39:19.748Z,98879.50
2022-07-29T17:41:48.012Z,98880.97
2022-07-29T17:44:16.309Z,98880.50
2022-07-29T17:46:52.099Z,98880.34
2022-07-29T17:49:19.439Z,98886.19
2022-07-29T17:52:00.784Z,98880.66
2022-07-29T17:55:20.591Z,98886.34
2022-07-29T18:18:25.464Z,99023.66
2022-07-29T18:20:52.744Z,99031.34
2022-07-29T18:23:21.417Z,99057.03
2022-07-29T18:25:48.581Z,99049.47
2022-07-29T18:28:15.881Z,99040.81
